Latest Weather Observations for Braidwood

IDN60901

Issued at 9:41 pm EST Sunday 26 June 2016 (issued every 10 minutes, with the page automatically refreshed every 10 minutes)

About weather observations | Map of Canberra area stations | Latest observations for Canberra area | Other Formats
Station Details ID: 069132 Name: BRAIDWOOD RACECOURSE AWS Lat: -35.43 Lon: 149.78 Height: 665.2 m
Data from the previous 72 hours. | See also: Recent months at Braidwood
Date/Time
EST
Temp
°C
App
Temp
°C
Dew
Point
°C
Rel
Hum
%
Delta-T
°C
Wind Press
QNH
hPa
Press
MSL
hPa
Rain since
9am
mm
Dir  Spd
km/h
Gust
km/h
Spd
kts
Gust
kts
26/09:30pm 1.6 -0.3 0.3 91 0.5 CALM 0 0 0 0 1015.8 1016.5 0.0
26/09:00pm 1.8 -0.1 0.3 90 0.6 CALM 0 0 0 0 1016.0 1016.8 0.0
26/08:30pm 2.1 0.2 0.3 88 0.7 CALM 0 0 0 0 1016.2 1017.0 0.0
26/08:00pm 3.3 1.6 1.7 89 0.7 CALM 0 0 0 0 1016.6 1017.4 0.0
26/07:30pm 2.4 0.5 0.6 88 0.7 CALM 0 0 0 0 1016.5 1017.3 0.0
26/07:00pm 2.1 0.0 -0.5 83 1.0 CALM 0 0 0 0 1016.4 1017.2 0.0
26/06:30pm 3.1 1.2 0.3 82 1.1 CALM 0 0 0 0 1016.3 1017.1 0.0
26/06:00pm 4.1 2.3 1.0 80 1.3 CALM 0 0 0 0 1016.4 1017.2 0.0
26/05:30pm 4.8 3.0 1.5 79 1.4 CALM 0 0 0 0 1015.9 1016.7 0.0
26/05:00pm 5.0 3.1 0.4 72 1.8 CALM 0 0 0 0 1015.9 1016.7 0.0
26/04:30pm 6.7 4.9 1.2 68 2.3 CALM 0 0 0 0 1016.0 1016.8 0.0
26/04:00pm 8.3 6.5 1.5 62 2.9 CALM 0 0 0 0 1016.0 1016.8 0.0
26/03:30pm 8.9 7.2 1.6 60 3.1 CALM 0 0 0 0 1015.9 1016.7 0.0
26/03:00pm 8.8 6.9 0.8 57 3.4 CALM 0 0 0 0 1016.4 1017.2 0.0
26/02:30pm 8.4 6.3 1.8 63 2.8 N 2 6 1 3 1016.7 1017.5 0.0
26/02:00pm 8.1 6.4 1.9 65 2.7 CALM 0 0 0 0 1016.7 1017.5 0.0
26/01:30pm 8.5 6.9 2.5 66 2.6 CALM 0 0 0 0 1017.1 1018.0 0.0
26/01:00pm 8.0 6.3 1.6 64 2.7 CALM 0 0 0 0 1017.5 1018.3 0.0
26/12:30pm 7.7 5.9 1.5 65 2.6 CALM 0 0 0 0 1017.6 1018.4 0.0
26/12:00pm 7.9 5.8 1.7 65 2.6 NNW 2 4 1 2 1018.2 1019.0 0.0
26/11:30am 6.9 4.4 1.6 69 2.2 WNW 4 7 2 4 1019.1 1019.9 0.0
26/11:00am 7.3 4.8 1.6 67 2.4 NNW 4 7 2 4 1019.6 1020.4 0.0
26/10:30am 5.9 4.1 1.1 71 2.0 CALM 0 0 0 0 1020.0 1020.9 0.0
26/10:00am 4.0 2.1 0.3 77 1.5 CALM 0 0 0 0 1020.3 1021.2 0.0
26/09:30am 3.0 1.0 -0.3 79 1.3 CALM 0 0 0 0 1020.4 1021.3 0.0
26/09:00am 1.5 -0.6 -0.6 86 0.8 CALM 0 0 0 0 1020.4 1021.3 0.2
26/08:30am -0.8 -3.1 -2.2 90 0.5 CALM 0 0 0 0 1020.2 1021.1 0.0
26/08:00am -2.3 -5.1 -3.3 93 0.2 N 2 4 1 2 1020.1 1021.0 0.0
26/07:30am -3.4 -5.9 -4.1 95 0.1 CALM 0 4 0 2 1020.2 1021.1 0.0
26/07:00am -4.0 -7.0 -4.8 94 0.1 NNW 2 4 1 2 1019.9 1020.8 0.0
26/06:30am -3.9 -6.5 -4.9 93 0.2 CALM 0 2 0 1 1019.6 1020.4 0.0
26/06:00am -3.9 -6.5 -5.3 90 0.3 CALM 0 0 0 0 1019.4 1020.2 0.0
26/05:30am -2.5 -6.1 -3.5 93 0.2 NNW 6 6 3 3 1019.4 1020.2 0.0
26/05:00am -2.2 -5.9 -3.2 93 0.2 NNW 7 7 4 4 1019.2 1020.0 0.0
26/04:30am -2.3 -5.8 -3.0 95 0.1 NNW 6 6 3 3 1019.4 1020.2 0.0
26/04:00am -3.1 -6.0 -4.1 93 0.2 S 2 2 1 1 1019.1 1019.9 0.0
26/03:30am -3.5 -6.8 -4.6 92 0.2 SE 4 6 2 3 1019.2 1020.0 0.0
26/03:00am -3.3 -6.6 -4.6 91 0.3 SSE 4 6 2 3 1019.5 1020.3 0.0
26/02:30am -2.3 -5.5 -3.7 90 0.4 NNW 4 4 2 2 1020.0 1020.9 0.0
26/02:00am -2.0 -5.7 -3.3 91 0.4 NNW 7 7 4 4 1019.7 1020.6 0.0
26/01:30am -1.8 -4.2 -3.2 90 0.4 CALM 0 4 0 2 1020.1 1021.0 0.0
26/01:00am -1.6 -5.2 -3.3 88 0.5 NW 6 7 3 4 1019.8 1020.7 0.0
26/12:30am -1.2 -5.0 -3.7 83 0.8 N 7 9 4 5 1019.8 1020.7 0.0
26/12:00am -0.2 -3.4 -3.1 81 1.0 SW 4 6 2 3 1019.6 1020.4 0.0
 
Date/Time
EST
Temp
°C
App
Temp
°C
Dew
Point
°C
Rel
Hum
%
Delta-T
°C
Wind Press
QNH
hPa
Press
MSL
hPa
Rain since
9am
mm
Dir  Spd
km/h
Gust
km/h
Spd
kts
Gust
kts
25/11:30pm -0.7 -4.0 -4.0 78 1.1 WSW 4 6 2 3 1019.7 1020.6 0.0
25/11:00pm 0.1 -2.7 -3.4 77 1.2 SW 2 6 1 3 1020.1 1021.0 0.0
25/10:30pm 1.2 -2.9 -2.7 75 1.5 WSW 9 11 5 6 1020.1 1021.0 0.0
25/10:00pm -0.2 -3.9 -3.2 80 1.0 WSW 7 9 4 5 1019.9 1020.8 0.0
25/09:30pm -0.2 -3.9 -2.9 82 0.9 WSW 7 9 4 5 1020.1 1021.0 0.0
25/09:00pm -0.2 -3.4 -3.4 79 1.1 WSW 4 6 2 3 1020.0 1020.9 0.0
25/08:30pm 0.1 -3.0 -2.6 82 1.0 N 4 6 2 3 1020.1 1021.0 0.0
25/08:00pm 0.0 -3.5 -2.7 82 1.0 W 6 7 3 4 1019.8 1020.7 0.0
25/07:30pm 0.1 -2.7 -2.9 80 1.1 S 2 6 1 3 1019.8 1020.7 0.0
25/07:00pm 0.3 -2.0 -2.6 81 1.0 CALM 0 4 0 2 1019.7 1020.6 0.0
25/06:30pm 1.7 -1.8 -3.0 71 1.7 NW 6 7 3 4 1019.5 1020.3 0.0
25/06:00pm 2.3 -0.1 -3.4 66 2.0 CALM 0 0 0 0 1019.1 1019.9 0.0
25/05:30pm 3.6 0.0 -3.6 59 2.6 SSW 6 9 3 5 1018.7 1019.6 0.0
25/05:00pm 5.5 1.9 -3.8 51 3.4 SW 6 9 3 5 1018.3 1019.1 0.0
25/04:30pm 7.1 3.3 -4.0 45 4.1 SSW 7 11 4 6 1018.2 1019.0 0.0
25/04:00pm 7.7 3.1 -4.4 42 4.4 SW 11 15 6 8 1018.0 1018.8 0.0
25/03:30pm 7.8 2.8 -4.3 42 4.5 SW 13 20 7 11 1017.9 1018.7 0.0
25/03:00pm 8.0 2.6 -4.1 42 4.5 SW 15 24 8 13 1017.8 1018.6 0.0
25/02:30pm 8.1 2.8 -3.7 43 4.4 SSW 15 22 8 12 1017.7 1018.5 0.0
25/02:00pm 8.1 2.9 -3.1 45 4.3 SW 15 22 8 12 1017.4 1018.2 0.0
25/01:30pm 7.9 2.3 -3.3 45 4.2 SSW 17 26 9 14 1017.2 1018.1 0.0
25/01:00pm 7.7 1.4 -3.8 44 4.3 SW 20 30 11 16 1017.5 1018.3 0.0
25/12:30pm 7.5 1.1 -4.6 42 4.4 SSW 20 30 11 16 1017.7 1018.5 0.0
25/12:00pm 7.2 0.8 -4.5 43 4.3 SW 20 35 11 19 1017.7 1018.5 0.0
25/11:30am 6.8 0.0 -4.9 43 4.2 SW 22 39 12 21 1017.7 1018.5 0.0
25/11:00am 6.5 0.8 -3.7 48 3.8 SW 17 26 9 14 1017.8 1018.6 0.0
25/10:30am 5.7 -0.5 -4.7 47 3.7 SW 19 33 10 18 1017.7 1018.5 0.0
25/10:00am 5.2 -0.5 -4.1 51 3.3 SW 17 24 9 13 1017.8 1018.6 0.0
25/09:30am 4.6 0.0 -4.4 52 3.2 SW 11 19 6 10 1017.5 1018.3 0.0
25/09:00am 3.9 -1.1 -4.3 55 2.9 SW 13 19 7 10 1017.0 1017.8 0.0
25/08:30am 3.2 -1.8 -4.5 57 2.7 SW 13 22 7 12 1016.8 1017.6 0.0
25/08:00am 2.9 -2.2 -5.0 56 2.7 SW 13 20 7 11 1016.8 1017.6 0.0
25/07:30am 2.5 -3.3 -4.7 59 2.5 SW 17 24 9 13 1016.5 1017.3 0.0
25/07:00am 0.2 -4.4 -4.2 72 1.5 WSW 11 15 6 8 1016.3 1017.1 0.0
25/06:30am -0.5 -4.3 -3.9 78 1.1 WNW 7 13 4 7 1015.9 1016.7 0.0
25/06:00am 0.1 -3.6 -4.3 72 1.5 W 6 7 3 4 1015.5 1016.3 0.0
25/05:30am -0.2 -5.8 -2.7 83 0.9 WNW 17 20 9 11 1015.1 1015.9 0.0
25/05:00am -0.1 -5.4 -3.3 79 1.1 WNW 15 19 8 10 1014.6 1015.4 0.0
25/04:30am 0.8 -3.3 -3.1 75 1.4 NW 9 11 5 6 1014.3 1015.0 0.0
25/04:00am -0.2 -3.4 -3.1 81 1.0 N 4 9 2 5 1013.9 1014.7 0.0
25/03:30am 0.3 -3.7 -2.6 81 1.0 NW 9 17 5 9 1013.4 1014.2 0.0
25/03:00am 0.1 -3.6 -2.8 81 1.0 NNW 7 11 4 6 1013.1 1013.8 0.0
25/02:30am 1.3 -3.9 -2.8 74 1.5 WNW 15 20 8 11 1012.8 1013.5 0.0
25/02:00am -0.7 -3.9 -3.4 82 0.9 NNW 4 6 2 3 1012.6 1013.3 0.0
25/01:30am 0.3 -2.9 -3.2 77 1.2 NNW 4 6 2 3 1012.3 1013.1 0.0
25/01:00am 0.6 -4.2 -2.4 80 1.1 NW 13 17 7 9 1011.7 1012.4 0.0
25/12:30am 0.0 -3.1 -2.9 81 1.0 NNW 4 7 2 4 1011.7 1012.4 0.0
25/12:00am 1.4 -2.7 -3.3 71 1.7 NW 9 13 5 7 1011.3 1012.0 0.0
 
Date/Time
EST
Temp
°C
App
Temp
°C
Dew
Point
°C
Rel
Hum
%
Delta-T
°C
Wind Press
QNH
hPa
Press
MSL
hPa
Rain since
9am
mm
Dir  Spd
km/h
Gust
km/h
Spd
kts
Gust
kts
24/11:30pm 1.4 -1.8 -3.7 69 1.9 WNW 4 7 2 4 1011.0 1011.7 0.0
24/11:00pm 2.3 -1.3 -3.4 66 2.0 W 6 11 3 6 1010.5 1011.2 0.0
24/10:30pm 2.6 -1.8 -2.7 68 1.9 W 11 17 6 9 1010.4 1011.1 0.0
24/10:00pm 1.8 -2.3 -2.9 71 1.7 WNW 9 15 5 8 1010.2 1010.9 0.0
24/09:30pm 2.5 -2.3 -2.4 70 1.8 W 13 19 7 10 1009.8 1010.5 0.0
24/09:00pm 2.1 -2.7 -2.2 73 1.6 W 13 19 7 10 1009.1 1009.8 0.0
24/08:30pm 2.3 -2.0 -1.8 74 1.5 WNW 11 17 6 9 1008.7 1009.4 0.0
24/08:00pm 2.6 -2.5 -1.6 74 1.6 WNW 15 20 8 11 1008.2 1008.8 0.0
24/07:30pm 2.8 -3.6 -1.4 74 1.6 WNW 22 30 12 16 1007.4 1008.1 0.0
24/07:00pm 2.7 -1.9 -1.1 76 1.4 WNW 13 17 7 9 1007.0 1007.7 0.0
24/06:30pm 2.9 -2.4 -0.9 76 1.4 WNW 17 24 9 13 1006.4 1007.0 0.0
24/06:00pm 3.0 -2.3 -0.5 78 1.4 WNW 17 22 9 12 1005.6 1006.2 0.0
24/05:30pm 3.5 0.1 -0.9 73 1.7 NW 7 13 4 7 1005.1 1005.7 0.0
24/05:00pm 4.4 1.1 -1.0 68 2.1 NNW 6 13 3 7 1004.3 1004.9 0.0
24/04:30pm 5.3 1.0 -1.4 62 2.6 WNW 11 24 6 13 1003.8 1004.4 0.0
24/04:00pm 5.8 -1.4 -1.8 58 2.9 WNW 26 35 14 19 1002.7 1003.3 0.0
24/03:30pm 5.8 -1.3 -1.6 59 2.9 WNW 26 41 14 22 1002.2 1002.8 0.0
24/03:00pm 6.4 1.4 -1.5 57 3.1 W 15 24 8 13 1002.5 1003.1 0.0
24/02:30pm 7.5 2.9 -1.4 53 3.5 WSW 13 26 7 14 1001.8 1002.3 0.0
24/02:00pm 7.3 1.3 -1.4 54 3.5 WNW 20 39 11 21 1001.0 1001.6 0.0
24/01:30pm 7.6 -0.7 -1.4 53 3.6 WNW 32 52 17 28 1000.6 1001.2 0.0
24/01:06pm 7.5 0.1 -0.9 55 3.4 WNW 28 52 15 28 1000.7 1001.3 0.0
24/01:00pm 7.7 -0.5 -0.8 55 3.4 WNW 32 46 17 25 1000.8 1001.4 0.0
24/12:30pm 7.0 -1.6 0.5 63 2.7 WNW 35 54 19 29 1001.4 1001.9 0.0
24/12:22pm 7.0 -0.2 0.7 64 2.6 WNW 28 54 15 29 1001.6 1002.1 0.0
24/12:00pm 6.8 0.3 0.0 62 2.8 WNW 24 39 13 21 1001.9 1002.5 0.0
24/11:45am 7.3 -0.5 1.4 66 2.5 WNW 32 52 17 28 1002.2 1002.8 0.0
24/11:30am 7.0 -1.1 0.9 65 2.5 WNW 33 48 18 26 1002.3 1002.9 0.0
24/11:00am 6.9 -1.2 1.2 67 2.4 WNW 33 48 18 26 1002.5 1003.1 0.0
24/10:57am 6.4 -0.8 0.5 66 2.4 WNW 28 48 15 26 1002.5 1003.1 0.0
24/10:30am 6.2 -1.9 0.9 69 2.2 WNW 33 46 18 25 1002.4 1003.0 0.0
24/10:00am 6.7 -1.3 1.6 70 2.2 NW 33 57 18 31 1001.9 1002.5 0.0
24/09:47am 6.4 -1.1 0.9 68 2.3 NW 30 50 16 27 1001.7 1002.2 0.0
24/09:30am 6.1 -0.6 1.2 71 2.0 NW 26 44 14 24 1001.9 1002.5 0.0
24/09:00am 6.3 0.9 1.4 71 2.1 NW 19 28 10 15 1002.3 1002.9 0.2
24/08:30am 5.9 1.6 1.2 72 1.9 NW 13 22 7 12 1002.4 1003.0 0.2
24/08:00am 5.5 1.3 1.4 75 1.7 NW 13 22 7 12 1001.9 1002.5 0.2
24/07:30am 5.2 1.0 1.9 79 1.4 NW 13 22 7 12 1001.5 1002.0 0.2
24/07:00am 5.3 0.8 2.1 80 1.4 NW 15 22 8 12 1000.8 1001.4 0.2
24/06:30am 5.7 0.9 2.7 81 1.3 NW 17 30 9 16 1000.7 1001.3 0.2
24/06:00am 6.0 0.9 3.3 83 1.2 NW 19 26 10 14 1000.5 1001.0 0.2
24/05:30am 7.0 0.7 3.8 80 1.4 NW 26 37 14 20 1000.4 1000.9 0.0
24/05:00am 6.6 0.4 4.4 86 1.0 NW 26 44 14 24 1000.1 1000.6 0.0
24/04:30am 7.2 -0.2 3.8 79 1.5 NW 32 48 17 26 999.6 1000.2 0.0
24/04:00am 7.7 0.1 3.7 76 1.8 NW 33 52 18 28 999.5 1000.1 0.0
24/03:32am 7.8 -0.3 3.3 73 2.0 NW 35 57 19 31 999.5 1000.1 0.0
24/03:30am 7.8 -0.3 3.3 73 2.0 NW 35 54 19 29 999.5 1000.1 0.0
24/03:02am 8.1 -0.3 3.6 73 2.0 NW 37 61 20 33 999.3 999.9 0.0
24/03:00am 8.0 -0.4 3.5 73 2.0 NW 37 54 20 29 999.4 1000.0 0.0
24/02:30am 8.2 0.2 3.7 73 2.0 NW 35 56 19 30 999.9 1000.4 0.0
24/02:00am 8.5 -0.4 3.1 69 2.4 WNW 39 59 21 32 999.6 1000.2 0.0
24/01:30am 8.5 -1.1 3.6 71 2.2 WNW 43 61 23 33 999.5 1000.1 0.0
24/01:00am 8.7 0.1 4.5 75 1.9 NW 39 57 21 31 999.8 1000.3 0.0
24/12:35am 8.8 0.9 4.4 74 2.0 NW 35 63 19 34 999.6 1000.2 0.0
24/12:30am 8.9 1.4 4.5 74 2.0 NW 33 48 18 26 999.6 1000.2 0.0
24/12:09am 9.2 2.8 5.2 76 1.9 NW 28 48 15 26 1000.4 1000.9 0.0
24/12:00am 9.2 3.4 6.3 82 1.4 NW 26 44 14 24 1000.4 1000.9 0.0
 
Date/Time
EST
Temp
°C
App
Temp
°C
Dew
Point
°C
Rel
Hum
%
Delta-T
°C
Wind Press
QNH
hPa
Press
MSL
hPa
Rain since
9am
mm
Dir  Spd
km/h
Gust
km/h
Spd
kts
Gust
kts
23/11:30pm 9.6 4.9 6.0 78 1.7 NW 20 35 11 19 1000.7 1001.3 0.0
23/11:00pm 9.3 4.9 6.6 83 1.3 NNW 19 37 10 20 1000.7 1001.3 0.0
23/10:30pm 9.2 4.7 6.3 82 1.4 NNW 19 32 10 17 1001.2 1001.8 0.0
23/10:00pm 9.1 4.6 6.2 82 1.4 NNW 19 33 10 18 1001.6 1002.1 0.0

Latest Capital City Observations: Canberra | Sydney | Melbourne | Brisbane | Adelaide | Perth | Hobart | Darwin

Other Formats:

Comma delimited format used in spreadsheet applications
http://www.bom.gov.au/fwo/IDN60903/IDN60903.94927.axf

JavaScript Object Notation format (JSON) in row-major order
http://www.bom.gov.au/fwo/IDN60903/IDN60903.94927.json